KHSV/HSV METAR and TAF weather

Enter ICAO airport designator
Station Type Date Time Source
KHSV METAR 2021/09/24 01:53 UTC NOAA

KHSV 240153Z 34003KT 10SM CLR 14/10 A3008 RMK AO2 SLP183 T01390100


Station Type Date Time Source
KHSV Decoded METAR 2021/09/24 01:53 UTC NOAA

HUNTSVILLE INTERNATIONAL JONES FIELD, AL, United States (KHSV) 34-39N 086-47W 191M
Sep 23, 2021 - 09:53 PM EDT / 2021.09.24 0153 UTC
Wind: from the NNW (340 degrees) at 3 MPH (3 KT):0
Visibility: 10 mile(s):0
Sky conditions: clear
Temperature: 57.0 F (13.9 C)
Dew Point: 50.0 F (10.0 C)
Relative Humidity: 77%
Pressure (altimeter): 30.08 in. Hg (1018 hPa)
ob: KHSV 240153Z 34003KT 10SM CLR 14/10 A3008 RMK AO2 SLP183 T01390100
cycle: 2

Station Type Date Time Source
KHSV TAF 2021/09/23 18:42 UTC NOAA

TAF KHSV 231741Z 2318/2418 29007KT P6SM SCT040
FM232200 VRB03KT P6SM SKC
FM241600 VRB03KT P6SM FEW040 SCT250

Example: see airport list